Time;durP1;ratioP1;P1;durP2;ratioP2;P2;SDS_P1;SDS_P2;PMS_P1;PMS_P2;Temp;Humidity;BMP_temperature;BMP_pressure;BME280_temperature;BME280_humidity;BME280_pressure;Samples;Min_cycle;Max_cycle;Signal;HPM_P1;HPM_P2
2021/01/02 00:01:05;;;;;;;33.20;15.98;;;2.40;99.90;;;;;;4980260;28;20086;-81
2021/01/02 00:04:20;;;;;;;38.40;15.60;;;2.40;99.90;;;;;;4949163;29;20508;-80
2021/01/02 00:07:33;;;;;;;30.27;15.77;;;2.40;99.80;;;;;;4959246;28;20059;-80
2021/01/02 00:10:04;;;;;;;29.38;15.07;;;2.50;99.90;;;;;;4884325;29;20063;-78
2021/01/02 00:13:02;;;;;;;31.23;15.35;;;2.40;99.80;;;;;;4962644;28;20053;-80
2021/01/02 00:15:37;;;;;;;27.65;14.48;;;2.30;99.80;;;;;;4965455;28;20051;-80
2021/01/02 00:18:36;;;;;;;27.75;15.27;;;2.40;99.90;;;;;;4980672;28;20107;-81
2021/01/02 00:21:25;;;;;;;28.55;15.18;;;2.30;99.90;;;;;;4971366;28;20039;-80
2021/01/02 00:24:35;;;;;;;29.98;15.13;;;2.20;99.90;;;;;;4977392;28;20497;-80
2021/01/02 00:27:09;;;;;;;41.97;15.88;;;2.20;99.90;;;;;;4953267;28;20113;-79
2021/01/02 00:30:07;;;;;;;33.42;15.27;;;2.20;99.80;;;;;;4979427;28;20078;-81
2021/01/02 00:32:46;;;;;;;34.70;15.63;;;2.10;99.90;;;;;;4961180;28;20493;-80
2021/01/02 00:35:17;;;;;;;46.63;15.63;;;2.10;99.90;;;;;;4976120;28;20057;-80
2021/01/02 00:37:46;;;;;;;39.72;16.25;;;2.10;99.90;;;;;;4967690;28;20071;-80
2021/01/02 00:40:16;;;;;;;27.65;14.70;;;2.00;99.90;;;;;;4973192;28;20086;-80
2021/01/02 00:42:45;;;;;;;25.23;14.40;;;2.00;99.90;;;;;;4961048;28;20075;-80
2021/01/02 00:45:14;;;;;;;26.75;13.57;;;2.00;99.90;;;;;;4945543;29;20104;-81
2021/01/02 00:47:43;;;;;;;29.35;15.25;;;2.00;99.90;;;;;;4957816;28;20178;-80
2021/01/02 00:50:13;;;;;;;26.98;15.30;;;2.00;99.90;;;;;;4969674;28;20058;-80
2021/01/02 00:53:03;;;;;;;25.77;14.23;;;2.00;99.90;;;;;;4974076;28;20146;-80
2021/01/02 00:55:58;;;;;;;26.40;14.60;;;2.00;99.90;;;;;;4957378;28;20070;-80
2021/01/02 00:58:50;;;;;;;24.77;14.52;;;2.10;99.90;;;;;;4917352;29;20056;-80
2021/01/02 01:01:26;;;;;;;25.05;13.32;;;2.10;99.90;;;;;;4949799;28;20043;-80
2021/01/02 01:04:38;;;;;;;24.23;13.50;;;2.10;99.90;;;;;;4979169;28;20133;-81
2021/01/02 01:07:09;;;;;;;24.00;13.82;;;2.10;99.90;;;;;;4977068;28;20058;-80
2021/01/02 01:09:38;;;;;;;24.02;13.77;;;2.20;99.90;;;;;;4961214;28;20051;-80
2021/01/02 01:12:09;;;;;;;25.30;13.60;;;2.20;99.80;;;;;;4964836;28;20453;-80
2021/01/02 01:14:38;;;;;;;22.98;13.55;;;2.20;99.60;;;;;;4938444;28;20417;-80
2021/01/02 01:17:14;;;;;;;23.50;14.13;;;2.20;99.60;;;;;;4945578;29;20517;-80
2021/01/02 01:19:45;;;;;;;22.83;13.82;;;2.30;99.60;;;;;;4969654;28;20432;-80
2021/01/02 01:22:16;;;;;;;26.63;14.75;;;2.30;99.70;;;;;;4975682;28;20597;-80
2021/01/02 01:24:48;;;;;;;23.23;13.23;;;2.30;99.50;;;;;;4972362;28;20057;-79
2021/01/02 01:27:22;;;;;;;22.77;12.63;;;2.40;99.30;;;;;;4955837;28;20062;-80
2021/01/02 01:30:00;;;;;;;23.63;13.50;;;2.30;99.20;;;;;;4964728;28;20055;-80
2021/01/02 01:32:28;;;;;;;23.27;13.55;;;2.40;99.10;;;;;;4958837;28;20130;-80
2021/01/02 01:34:58;;;;;;;23.83;13.98;;;2.40;99.20;;;;;;4970446;28;20138;-79
2021/01/02 01:37:30;;;;;;;24.48;13.75;;;2.30;99.00;;;;;;4961551;28;20522;-80
2021/01/02 01:39:58;;;;;;;24.88;13.45;;;2.30;99.30;;;;;;4961346;28;20058;-80
2021/01/02 01:42:42;;;;;;;25.20;14.45;;;2.30;99.60;;;;;;4969898;28;20093;-80
2021/01/02 01:46:13;;;;;;;26.40;13.38;;;2.30;99.50;;;;;;4945544;28;20141;-80
2021/01/02 01:49:07;;;;;;;27.55;14.52;;;2.20;99.40;;;;;;4956832;28;20065;-80
2021/01/02 01:51:55;;;;;;;25.17;14.05;;;2.20;99.30;;;;;;4950097;28;20467;-80
2021/01/02 01:54:55;;;;;;;26.73;14.60;;;2.10;99.50;;;;;;4956800;28;20397;-79
2021/01/02 01:57:24;;;;;;;24.98;14.48;;;2.10;99.70;;;;;;4958204;28;20115;-80
2021/01/02 02:00:19;;;;;;;22.52;12.85;;;2.20;99.70;;;;;;4973703;28;20122;-80
2021/01/02 02:03:03;;;;;;;23.23;13.70;;;2.20;99.50;;;;;;4919953;28;20046;-79
2021/01/02 02:05:53;;;;;;;20.63;12.75;;;2.20;99.20;;;;;;4959073;28;20209;-79
2021/01/02 02:08:41;;;;;;;21.77;12.98;;;2.20;99.30;;;;;;4949797;28;20051;-80
2021/01/02 02:11:19;;;;;;;21.75;12.60;;;2.30;99.30;;;;;;4960930;28;20054;-80
2021/01/02 02:13:51;;;;;;;20.23;12.35;;;2.30;98.90;;;;;;4970721;28;20050;-80
2021/01/02 02:16:22;;;;;;;19.13;11.93;;;2.40;98.90;;;;;;4945038;28;20042;-80
2021/01/02 02:19:00;;;;;;;19.67;11.70;;;2.40;98.70;;;;;;4962964;28;20062;-81
2021/01/02 02:21:28;;;;;;;17.65;11.27;;;2.30;98.70;;;;;;4963125;28;20201;-81
2021/01/02 02:24:01;;;;;;;18.48;12.50;;;2.40;98.70;;;;;;4971227;28;20051;-81
2021/01/02 02:26:32;;;;;;;19.35;12.15;;;2.40;98.80;;;;;;4962310;28;20108;-81
2021/01/02 02:29:22;;;;;;;18.65;11.68;;;2.40;98.70;;;;;;4972462;28;20082;-81
2021/01/02 02:31:50;;;;;;;19.08;11.93;;;2.40;98.40;;;;;;4924097;28;20102;-81
2021/01/02 02:34:18;;;;;;;19.17;11.65;;;2.40;98.60;;;;;;4960686;28;20054;-80
2021/01/02 02:36:45;;;;;;;18.65;12.25;;;2.50;98.70;;;;;;4942385;28;20177;-81
2021/01/02 02:39:14;;;;;;;18.48;11.50;;;2.60;98.60;;;;;;4962720;28;20142;-81
2021/01/02 02:41:44;;;;;;;20.67;12.38;;;2.50;98.50;;;;;;4956521;28;20051;-81
2021/01/02 02:44:12;;;;;;;19.48;12.50;;;2.50;98.50;;;;;;4958290;28;20050;-81
2021/01/02 02:46:43;;;;;;;18.65;11.65;;;2.50;98.70;;;;;;4966467;28;20051;-82
2021/01/02 02:49:13;;;;;;;19.48;11.73;;;2.50;98.60;;;;;;4957126;28;20059;-82
2021/01/02 02:51:48;;;;;;;18.10;11.13;;;2.50;98.40;;;;;;4969705;28;20138;-81
2021/01/02 02:54:18;;;;;;;18.33;11.35;;;2.50;98.50;;;;;;4962082;28;20050;-80
2021/01/02 02:56:44;;;;;;;19.90;12.13;;;2.40;98.20;;;;;;4951780;28;20488;-79
2021/01/02 02:59:12;;;;;;;20.15;12.40;;;2.50;98.50;;;;;;4975417;28;20089;-81
2021/01/02 03:01:39;;;;;;;19.35;11.75;;;2.50;98.60;;;;;;4974169;28;20054;-81
2021/01/02 03:04:05;;;;;;;21.45;12.32;;;2.50;98.70;;;;;;4975624;28;20097;-80
2021/01/02 03:06:32;;;;;;;18.45;11.70;;;2.60;98.50;;;;;;4957042;28;20050;-81
2021/01/02 03:09:00;;;;;;;16.73;11.25;;;2.60;98.40;;;;;;4963122;28;20051;-80
2021/01/02 03:11:27;;;;;;;19.15;12.38;;;2.70;98.30;;;;;;4939891;29;20051;-81
2021/01/02 03:13:55;;;;;;;18.52;11.60;;;2.60;98.20;;;;;;4963213;28;20563;-80
2021/01/02 03:16:24;;;;;;;17.67;11.32;;;2.60;98.30;;;;;;4973348;28;20137;-81
2021/01/02 03:18:50;;;;;;;16.75;11.65;;;2.60;98.30;;;;;;4969471;28;20133;-80
2021/01/02 03:21:17;;;;;;;17.40;11.35;;;2.60;98.10;;;;;;4960626;28;20051;-81
2021/01/02 03:23:47;;;;;;;20.05;12.45;;;2.60;98.10;;;;;;4961025;28;20126;-80
2021/01/02 03:26:15;;;;;;;21.05;12.57;;;2.60;98.00;;;;;;4964169;28;20492;-81
2021/01/02 03:28:48;;;;;;;21.05;12.85;;;2.50;98.20;;;;;;4975210;28;20054;-80
2021/01/02 03:31:16;;;;;;;20.38;12.10;;;2.50;98.30;;;;;;4972290;28;20065;-79
2021/01/02 03:33:42;;;;;;;21.77;13.18;;;2.50;98.30;;;;;;4945483;28;20476;-79
2021/01/02 03:36:09;;;;;;;20.30;12.65;;;2.50;98.40;;;;;;4977394;28;20046;-79
2021/01/02 03:38:36;;;;;;;20.10;12.95;;;2.50;98.30;;;;;;4967563;28;20408;-79
2021/01/02 03:41:03;;;;;;;20.98;13.10;;;2.50;98.40;;;;;;4962529;29;20215;-79
2021/01/02 03:43:31;;;;;;;22.70;14.13;;;2.50;98.50;;;;;;4970434;28;20475;-79
2021/01/02 03:46:00;;;;;;;21.38;12.95;;;2.50;98.40;;;;;;4982129;28;20067;-79
2021/01/02 03:48:26;;;;;;;21.60;13.13;;;2.50;98.30;;;;;;4974527;28;20047;-79
2021/01/02 03:50:53;;;;;;;21.42;13.02;;;2.50;98.20;;;;;;4973682;28;20057;-80
2021/01/02 03:53:19;;;;;;;21.42;13.07;;;2.50;98.30;;;;;;4988682;28;20106;-79
2021/01/02 03:55:46;;;;;;;21.80;13.32;;;2.50;98.40;;;;;;4962793;29;20043;-79
2021/01/02 03:58:13;;;;;;;21.42;13.20;;;2.60;98.50;;;;;;4981740;28;20106;-79
2021/01/02 04:00:41;;;;;;;20.83;12.20;;;2.50;98.30;;;;;;4973715;28;20107;-80
2021/01/02 04:03:09;;;;;;;20.80;12.85;;;2.50;98.40;;;;;;4961909;29;20039;-80
2021/01/02 04:05:36;;;;;;;22.58;12.98;;;2.60;98.40;;;;;;4942170;29;20051;-80
2021/01/02 04:08:03;;;;;;;22.27;13.18;;;2.70;98.40;;;;;;4970295;28;20047;-79
2021/01/02 04:10:30;;;;;;;23.05;13.38;;;2.60;98.10;;;;;;4969458;28;20101;-79
2021/01/02 04:12:56;;;;;;;23.17;13.45;;;2.60;98.20;;;;;;4968968;28;20466;-79
2021/01/02 04:15:23;;;;;;;22.83;13.40;;;2.60;98.20;;;;;;4975596;28;20061;-80
2021/01/02 04:17:51;;;;;;;22.45;14.00;;;2.70;98.00;;;;;;4943385;28;20132;-80
2021/01/02 04:20:17;;;;;;;20.45;12.23;;;2.70;98.10;;;;;;4976879;28;20130;-79
2021/01/02 04:22:44;;;;;;;20.90;12.30;;;2.60;97.90;;;;;;4950093;29;20468;-79
2021/01/02 04:25:12;;;;;;;23.10;13.27;;;2.60;98.00;;;;;;4971425;28;20058;-79
2021/01/02 04:27:40;;;;;;;23.27;13.35;;;2.60;98.00;;;;;;4962198;28;20110;-79
2021/01/02 04:30:08;;;;;;;20.88;12.68;;;2.60;98.10;;;;;;4972857;28;20061;-79
2021/01/02 04:32:35;;;;;;;21.40;12.35;;;2.60;98.10;;;;;;4966801;28;20082;-79
2021/01/02 04:35:09;;;;;;;21.42;12.93;;;2.60;98.10;;;;;;4966375;28;20580;-79
2021/01/02 04:37:36;;;;;;;22.17;12.70;;;2.60;98.20;;;;;;4957858;28;20051;-79
2021/01/02 04:40:04;;;;;;;22.90;13.35;;;2.70;98.40;;;;;;4960104;28;20076;-79
2021/01/02 04:42:33;;;;;;;19.58;12.30;;;2.60;98.20;;;;;;4958778;28;20051;-79
2021/01/02 04:45:03;;;;;;;22.40;12.77;;;2.60;98.20;;;;;;4957184;28;20127;-79
2021/01/02 04:47:30;;;;;;;20.48;12.70;;;2.60;98.10;;;;;;4956916;28;20051;-79
2021/01/02 04:49:59;;;;;;;26.42;14.50;;;2.60;98.20;;;;;;4972944;28;20427;-79
2021/01/02 04:52:28;;;;;;;21.80;12.75;;;2.70;98.10;;;;;;4965349;28;20039;-80
2021/01/02 04:54:56;;;;;;;22.90;12.93;;;2.60;98.10;;;;;;4977752;28;20138;-79
2021/01/02 04:57:23;;;;;;;21.48;12.80;;;2.70;98.20;;;;;;4963994;28;20130;-80
2021/01/02 04:59:51;;;;;;;20.27;12.13;;;2.60;98.20;;;;;;4973314;28;20085;-79
2021/01/02 05:02:20;;;;;;;22.80;13.43;;;2.60;98.10;;;;;;4963303;28;20107;-80
2021/01/02 05:04:51;;;;;;;24.17;13.57;;;2.60;98.20;;;;;;4965560;28;20441;-79
2021/01/02 05:07:27;;;;;;;22.33;13.60;;;2.60;98.10;;;;;;4969452;28;20130;-79
2021/01/02 05:09:53;;;;;;;23.65;13.52;;;2.50;98.20;;;;;;4959819;28;20133;-79
2021/01/02 05:12:28;;;;;;;22.27;13.43;;;2.50;98.30;;;;;;4975990;28;20189;-79
2021/01/02 05:15:04;;;;;;;20.58;12.57;;;2.50;98.40;;;;;;4964980;28;20054;-79
2021/01/02 05:17:31;;;;;;;23.17;12.90;;;2.40;98.30;;;;;;4955959;28;20572;-79
2021/01/02 05:20:07;;;;;;;20.92;12.95;;;2.40;98.40;;;;;;4962374;28;20488;-79
2021/01/02 05:22:35;;;;;;;21.23;12.00;;;2.50;98.50;;;;;;4967077;28;20121;-79
2021/01/02 05:25:13;;;;;;;21.58;12.52;;;2.50;98.40;;;;;;4967126;28;20073;-79
2021/01/02 05:27:42;;;;;;;19.00;11.65;;;2.50;98.70;;;;;;4938858;29;20114;-79
2021/01/02 05:30:15;;;;;;;21.20;12.82;;;2.50;98.40;;;;;;4964821;28;20056;-80
2021/01/02 05:33:05;;;;;;;20.00;12.02;;;2.50;98.40;;;;;;4944793;28;20043;-79
2021/01/02 05:35:39;;;;;;;19.55;11.82;;;2.60;98.40;;;;;;4937508;29;20047;-79
2021/01/02 05:38:13;;;;;;;21.00;12.53;;;2.60;98.30;;;;;;4921916;29;20062;-80
2021/01/02 05:40:42;;;;;;;20.95;12.55;;;2.60;98.30;;;;;;4951533;29;20164;-79
2021/01/02 05:43:09;;;;;;;20.50;12.82;;;2.50;98.30;;;;;;4949152;29;20059;-79
2021/01/02 05:45:36;;;;;;;22.05;12.70;;;2.60;98.30;;;;;;4934728;29;20052;-79
2021/01/02 05:48:22;;;;;;;20.42;12.07;;;2.60;98.20;;;;;;4929168;29;20051;-79
2021/01/02 05:50:54;;;;;;;20.08;12.10;;;2.60;98.20;;;;;;4952163;28;20058;-79
2021/01/02 05:53:35;;;;;;;21.10;12.05;;;2.60;98.20;;;;;;4944164;29;20406;-79
2021/01/02 05:56:05;;;;;;;20.42;11.85;;;2.60;98.30;;;;;;4936412;29;20382;-79
2021/01/02 05:58:34;;;;;;;21.33;12.02;;;2.60;98.40;;;;;;4951594;29;20059;-80
2021/01/02 06:01:11;;;;;;;20.13;11.88;;;2.60;98.40;;;;;;4924213;29;20136;-81
2021/01/02 06:03:40;;;;;;;21.90;12.23;;;2.50;98.40;;;;;;4954110;29;20075;-81
2021/01/02 06:06:08;;;;;;;21.00;12.32;;;2.60;98.50;;;;;;4940182;29;20088;-80
2021/01/02 06:08:48;;;;;;;20.15;11.65;;;2.50;98.60;;;;;;4939293;28;20078;-81
2021/01/02 06:11:19;;;;;;;21.25;13.00;;;2.50;98.70;;;;;;4953111;28;20066;-81
2021/01/02 06:13:49;;;;;;;18.35;11.80;;;2.60;98.50;;;;;;4942427;29;20047;-79
2021/01/02 06:16:16;;;;;;;19.15;11.40;;;2.60;98.60;;;;;;4951386;29;20452;-80
2021/01/02 06:18:45;;;;;;;19.45;12.00;;;2.70;98.50;;;;;;4941074;29;20055;-80
2021/01/02 06:21:13;;;;;;;18.73;11.18;;;2.60;98.30;;;;;;4935585;29;20150;-80
2021/01/02 06:23:45;;;;;;;20.35;12.45;;;2.60;98.30;;;;;;4938045;29;20422;-82
2021/01/02 06:26:13;;;;;;;20.13;11.90;;;2.60;98.30;;;;;;4940666;29;20413;-81
2021/01/02 06:28:42;;;;;;;20.35;12.00;;;2.60;98.30;;;;;;4957043;28;20508;-80
2021/01/02 06:31:10;;;;;;;18.38;11.77;;;2.70;98.20;;;;;;4957102;28;20083;-79
2021/01/02 06:33:43;;;;;;;19.95;11.60;;;2.60;98.20;;;;;;4966674;28;20598;-79
2021/01/02 06:36:29;;;;;;;19.05;11.52;;;2.70;98.30;;;;;;4972734;28;20083;-79
2021/01/02 06:39:21;;;;;;;19.67;11.65;;;2.70;98.30;;;;;;4964947;28;20061;-80
2021/01/02 06:41:49;;;;;;;18.80;11.05;;;2.60;98.20;;;;;;4958230;28;20047;-80
2021/01/02 06:44:38;;;;;;;20.35;11.63;;;2.60;98.40;;;;;;4957691;28;20134;-79
2021/01/02 06:47:17;;;;;;;20.13;11.77;;;2.60;98.20;;;;;;4955749;28;20048;-80
2021/01/02 06:49:44;;;;;;;17.30;10.73;;;2.70;98.60;;;;;;4958290;28;20055;-80
2021/01/02 06:52:32;;;;;;;19.52;11.57;;;2.60;98.20;;;;;;4960223;28;20496;-81
2021/01/02 06:55:24;;;;;;;19.15;11.75;;;2.70;98.10;;;;;;4958078;28;20130;-81
2021/01/02 06:58:16;;;;;;;19.25;11.90;;;2.60;98.20;;;;;;4981852;28;20061;-81
2021/01/02 07:00:43;;;;;;;20.58;11.65;;;2.60;98.40;;;;;;4987263;28;20099;-81
2021/01/02 07:03:42;;;;;;;18.90;11.40;;;2.60;98.50;;;;;;4969624;29;20062;-80
2021/01/02 07:06:21;;;;;;;18.65;11.68;;;2.60;98.50;;;;;;4972654;28;20074;-81
2021/01/02 07:08:50;;;;;;;18.98;11.10;;;2.60;98.50;;;;;;4976519;28;20354;-80
2021/01/02 07:11:28;;;;;;;19.67;11.98;;;2.80;98.50;;;;;;4980703;28;20058;-82
2021/01/02 07:14:21;;;;;;;19.65;11.40;;;2.60;98.40;;;;;;4982402;28;20066;-81
2021/01/02 07:16:53;;;;;;;20.55;10.98;;;2.60;98.40;;;;;;4971617;28;20106;-81
2021/01/02 07:19:48;;;;;;;19.23;11.15;;;2.60;98.40;;;;;;4974196;28;20062;-81
2021/01/02 07:22:27;;;;;;;18.38;10.95;;;2.60;98.50;;;;;;4967866;29;20047;-81
2021/01/02 07:25:07;;;;;;;18.23;11.32;;;2.60;98.40;;;;;;4969355;29;20184;-82
2021/01/02 07:27:37;;;;;;;19.35;11.45;;;2.70;98.30;;;;;;4971489;28;20057;-82
2021/01/02 07:30:08;;;;;;;17.88;10.40;;;2.60;98.40;;;;;;4971175;28;20658;-81
2021/01/02 07:32:37;;;;;;;16.63;10.27;;;2.60;98.50;;;;;;4963044;29;20089;-81
2021/01/02 07:35:07;;;;;;;18.65;11.20;;;2.70;98.40;;;;;;4969455;29;20083;-81
2021/01/02 07:37:36;;;;;;;19.77;11.32;;;2.70;98.40;;;;;;4973804;28;20103;-81
2021/01/02 07:40:07;;;;;;;18.45;11.63;;;2.70;98.30;;;;;;4973682;28;20078;-81
2021/01/02 07:42:37;;;;;;;19.30;11.93;;;2.70;98.30;;;;;;4973030;29;20074;-81
2021/01/02 07:45:08;;;;;;;20.00;12.00;;;2.70;98.20;;;;;;4973731;28;20646;-81
2021/01/02 07:47:36;;;;;;;17.75;11.10;;;2.70;98.30;;;;;;4956492;29;20047;-81
2021/01/02 07:50:10;;;;;;;18.63;11.13;;;2.70;98.30;;;;;;4971022;29;20201;-81
2021/01/02 07:52:47;;;;;;;17.85;10.65;;;2.70;98.40;;;;;;4941204;29;20051;-81
2021/01/02 07:55:15;;;;;;;18.85;11.02;;;2.70;98.10;;;;;;4935522;29;20201;-80
2021/01/02 07:57:43;;;;;;;19.63;11.23;;;2.70;98.20;;;;;;4949362;29;20075;-81
2021/01/02 08:00:11;;;;;;;17.48;11.15;;;2.90;98.30;;;;;;4934125;29;20178;-81
2021/01/02 08:02:41;;;;;;;18.92;11.63;;;2.80;98.30;;;;;;4933276;29;20123;-81
2021/01/02 08:05:11;;;;;;;17.55;10.90;;;2.80;98.00;;;;;;4918600;29;20067;-81
2021/01/02 08:07:38;;;;;;;19.42;11.52;;;2.80;98.20;;;;;;4933572;29;20140;-80
2021/01/02 08:10:10;;;;;;;19.98;11.50;;;2.80;98.10;;;;;;4949506;29;20083;-80
2021/01/02 08:12:45;;;;;;;19.52;11.45;;;2.70;98.30;;;;;;4950796;29;20099;-80
2021/01/02 08:15:15;;;;;;;;;;;2.70;98.30;;;;;;4953106;29;20047;-80
2021/01/02 08:17:42;;;;;;;18.58;10.80;;;2.70;98.40;;;;;;4950839;29;20320;-80
2021/01/02 08:20:11;;;;;;;18.67;11.05;;;2.80;98.40;;;;;;4951905;29;20431;-80
2021/01/02 08:22:39;;;;;;;19.33;11.15;;;2.80;98.30;;;;;;4951292;29;20047;-80
2021/01/02 08:25:11;;;;;;;20.02;11.82;;;2.80;98.30;;;;;;4960517;29;20075;-81
2021/01/02 08:27:39;;;;;;;19.33;12.32;;;2.80;98.10;;;;;;4954048;29;20134;-82
2021/01/02 08:30:10;;;;;;;22.65;12.75;;;2.80;98.20;;;;;;4937585;29;20138;-80
2021/01/02 08:32:40;;;;;;;21.90;12.57;;;2.80;98.20;;;;;;4946250;29;20106;-81
2021/01/02 08:35:27;;;;;;;20.65;11.50;;;2.80;98.30;;;;;;4949314;29;20111;-80
2021/01/02 08:38:03;;;;;;;21.48;12.63;;;2.80;98.40;;;;;;4944390;29;20052;-80
2021/01/02 08:40:29;;;;;;;22.52;12.90;;;2.90;98.40;;;;;;4940650;29;20168;-81
2021/01/02 08:42:56;;;;;;;23.00;13.00;;;2.80;98.40;;;;;;4941131;29;20090;-80
2021/01/02 08:45:30;;;;;;;20.70;12.65;;;2.80;98.30;;;;;;4940870;29;20090;-80
2021/01/02 08:48:08;;;;;;;22.58;12.73;;;2.90;98.40;;;;;;4940038;29;20134;-79
2021/01/02 08:50:39;;;;;;;23.23;12.65;;;2.90;98.30;;;;;;4939831;29;20088;-80
2021/01/02 08:53:25;;;;;;;22.45;12.80;;;2.90;98.30;;;;;;4943886;29;20146;-81
2021/01/02 08:55:51;;;;;;;21.73;12.35;;;2.90;98.30;;;;;;4944399;29;20056;-80
2021/01/02 08:58:30;;;;;;;24.83;13.30;;;2.90;98.20;;;;;;4926351;29;20569;-81
2021/01/02 09:00:58;;;;;;;24.02;13.55;;;3.00;98.10;;;;;;4947884;29;20043;-81
2021/01/02 09:03:25;;;;;;;20.70;12.90;;;3.00;98.20;;;;;;4963021;29;20071;-81
2021/01/02 09:05:52;;;;;;;22.98;13.88;;;2.90;98.10;;;;;;4964067;28;20081;-81
2021/01/02 09:35:27;;;;;;;23.85;13.65;;;3.20;98.10;;;;;;5662369;23;20026;31
2021/01/02 09:37:54;;;;;;;24.38;13.50;;;3.20;98.00;;;;;;5059022;23;20038;-83
2021/01/02 09:42:57;;;;;;;24.50;13.73;;;3.30;98.00;;;;;;5810977;23;20059;-76
2021/01/02 09:45:24;;;;;;;25.15;14.07;;;3.30;97.90;;;;;;5009787;23;20073;-80
2021/01/02 09:47:51;;;;;;;25.73;14.02;;;3.40;97.70;;;;;;4993177;28;20106;-82
2021/01/02 09:52:54;;;;;;;25.48;12.93;;;3.30;97.70;;;;;;5852258;23;20047;-82
2021/01/02 09:55:21;;;;;;;22.95;12.73;;;3.40;97.80;;;;;;5107022;23;20039;-82
2021/01/02 10:00:27;;;;;;;23.00;13.38;;;3.40;98.00;;;;;;5121382;23;20460;-84
2021/01/02 10:02:57;;;;;;;21.65;12.35;;;3.40;97.80;;;;;;4997049;28;20034;-83
2021/01/02 10:05:27;;;;;;;23.52;12.77;;;3.30;97.80;;;;;;4999992;28;20063;-81
2021/01/02 10:10:29;;;;;;;20.77;12.38;;;3.50;97.60;;;;;;5169371;23;20046;-81
2021/01/02 10:12:56;;;;;;;22.10;12.65;;;3.60;97.00;;;;;;5008882;28;20054;-81
2021/01/02 10:15:25;;;;;;;23.45;13.25;;;3.30;97.50;;;;;;5016305;28;20081;-81
2021/01/02 10:17:52;;;;;;;23.10;13.18;;;3.40;97.50;;;;;;4993256;28;20030;-81
2021/01/02 10:30:41;;;;;;;24.73;13.65;;;3.40;97.10;;;;;;5604791;23;20061;-81
2021/01/02 10:33:08;;;;;;;22.13;12.77;;;3.40;97.40;;;;;;4995151;28;20259;-81
2021/01/02 10:35:35;;;;;;;23.30;13.43;;;3.30;97.40;;;;;;4979617;28;20552;-80
2021/01/02 10:38:01;;;;;;;23.92;14.00;;;3.30;97.60;;;;;;4975785;28;20055;-79
2021/01/02 10:40:28;;;;;;;23.92;13.40;;;3.40;97.20;;;;;;4975250;28;20114;-78
2021/01/02 10:42:55;;;;;;;24.05;13.60;;;3.40;97.30;;;;;;4978004;28;20074;-78
2021/01/02 10:45:22;;;;;;;26.77;13.25;;;3.40;98.10;;;;;;4972782;28;20522;-80
2021/01/02 10:47:50;;;;;;;22.73;12.88;;;3.30;97.70;;;;;;4980179;28;20607;-81
2021/01/02 10:50:18;;;;;;;23.35;13.30;;;3.30;97.30;;;;;;4967528;28;20137;-81
2021/01/02 10:52:45;;;;;;;21.60;12.73;;;3.40;97.10;;;;;;5008191;28;20062;-80
2021/01/02 10:55:13;;;;;;;23.00;13.13;;;3.50;97.30;;;;;;4968269;28;20062;-81
2021/01/02 10:57:39;;;;;;;21.83;13.07;;;3.50;97.40;;;;;;4988997;28;20137;-80
2021/01/02 11:00:09;;;;;;;23.63;13.77;;;3.30;97.30;;;;;;4965479;28;20496;-82
2021/01/02 11:02:36;;;;;;;22.55;13.00;;;3.40;97.30;;;;;;4989838;28;20508;-81
2021/01/02 11:05:15;;;;;;;23.63;12.98;;;3.50;97.00;;;;;;4986159;28;20073;-82
2021/01/02 11:07:57;;;;;;;22.13;12.32;;;3.80;96.70;;;;;;4955806;29;20485;-82
2021/01/02 11:10:29;;;;;;;22.92;12.48;;;3.70;96.70;;;;;;4962994;23;20139;-81
2021/01/02 11:15:39;;;;;;;23.83;13.35;;;3.70;96.80;;;;;;4956100;29;20094;-82
2021/01/02 11:18:07;;;;;;;22.83;12.70;;;3.80;97.00;;;;;;4952985;29;20120;-81
2021/01/02 11:20:39;;;;;;;20.27;12.05;;;3.70;96.80;;;;;;4952806;29;20052;-80
2021/01/02 11:23:18;;;;;;;21.90;12.52;;;3.70;96.60;;;;;;4952084;29;20055;-81
2021/01/02 11:26:12;;;;;;;20.73;11.90;;;3.70;96.60;;;;;;4953061;29;20067;-82
2021/01/02 11:28:41;;;;;;;23.00;13.10;;;3.60;96.60;;;;;;4959885;29;20052;-81
2021/01/02 11:31:08;;;;;;;21.48;12.60;;;3.60;96.60;;;;;;4944096;29;20549;-80
2021/01/02 11:33:45;;;;;;;22.38;12.73;;;3.70;96.80;;;;;;4943167;29;20080;-83
2021/01/02 11:44:49;;;;;;;20.05;12.10;;;3.80;96.30;;;;;;4992159;28;20062;-82
2021/01/02 11:47:18;;;;;;;21.80;13.00;;;3.80;96.30;;;;;;4981125;28;20054;-82
2021/01/02 11:49:49;;;;;;;21.70;12.15;;;3.80;96.20;;;;;;4997306;28;20054;-82
2021/01/02 11:52:16;;;;;;;20.92;12.13;;;3.90;95.90;;;;;;4985760;28;20047;-82
2021/01/02 11:54:44;;;;;;;19.23;11.50;;;3.80;95.60;;;;;;4985907;28;20043;-83
2021/01/02 11:57:13;;;;;;;21.38;12.10;;;3.80;95.50;;;;;;4984565;28;20086;-81
2021/01/02 11:59:44;;;;;;;21.77;12.40;;;3.80;96.00;;;;;;4986077;28;20046;-82
2021/01/02 12:02:16;;;;;;;21.02;13.25;;;3.80;96.20;;;;;;4985249;28;20054;-82
2021/01/02 12:04:50;;;;;;;20.90;12.25;;;3.80;96.00;;;;;;4980933;28;20051;-82
2021/01/02 12:07:23;;;;;;;18.70;11.38;;;3.90;95.80;;;;;;4983115;28;20123;-82
2021/01/02 12:09:52;;;;;;;21.50;12.38;;;3.80;95.80;;;;;;4984314;28;20038;-82
2021/01/02 12:12:22;;;;;;;20.90;12.40;;;3.90;95.70;;;;;;4986895;28;20058;-82
2021/01/02 12:14:49;;;;;;;23.75;13.32;;;3.80;96.00;;;;;;4985059;28;20050;-81
2021/01/02 12:17:16;;;;;;;22.77;12.65;;;3.90;96.00;;;;;;4984442;28;20054;-80
2021/01/02 12:19:43;;;;;;;19.95;11.82;;;3.80;96.20;;;;;;4984237;28;20078;-80
2021/01/02 12:22:13;;;;;;;20.92;12.48;;;3.60;96.40;;;;;;4968885;28;20082;-80
2021/01/02 12:24:42;;;;;;;22.65;13.27;;;3.80;96.40;;;;;;4979412;28;20516;-82
2021/01/02 12:27:20;;;;;;;21.45;13.20;;;3.80;96.20;;;;;;4988934;28;20057;-82
2021/01/02 12:29:48;;;;;;;21.50;12.68;;;3.80;96.10;;;;;;5002100;28;20042;-82
2021/01/02 12:32:20;;;;;;;21.55;12.73;;;3.70;96.10;;;;;;4990334;28;20045;-82
2021/01/02 12:34:47;;;;;;;22.13;12.55;;;3.60;96.40;;;;;;4974225;28;20058;-82
2021/01/02 12:37:17;;;;;;;22.58;13.07;;;3.70;96.80;;;;;;4973295;28;20109;-83
2021/01/02 12:39:45;;;;;;;21.80;12.48;;;3.70;96.60;;;;;;4981383;28;20034;-82
2021/01/02 12:42:14;;;;;;;24.17;13.15;;;3.80;96.40;;;;;;4979411;28;20522;-81
2021/01/02 12:44:41;;;;;;;23.23;13.48;;;3.50;96.60;;;;;;4980406;28;20431;-81
2021/01/02 12:47:13;;;;;;;22.65;13.10;;;3.40;97.00;;;;;;4991695;28;20062;-82
2021/01/02 12:52:43;;;;;;;20.70;12.55;;;3.60;97.00;;;;;;5147929;23;20039;-81
2021/01/02 12:55:13;;;;;;;20.60;11.95;;;3.60;96.90;;;;;;4983029;28;20404;-80
2021/01/02 12:57:48;;;;;;;21.65;12.13;;;3.50;96.90;;;;;;4986635;28;20062;-81
2021/01/02 13:00:20;;;;;;;19.90;11.95;;;3.30;96.90;;;;;;4988652;28;20055;-81
2021/01/02 13:02:50;;;;;;;19.50;11.88;;;3.50;96.90;;;;;;4992956;28;20051;-82
2021/01/02 13:05:23;;;;;;;22.65;13.07;;;3.40;97.10;;;;;;4989999;28;20042;-82
2021/01/02 13:07:51;;;;;;;25.23;14.13;;;3.40;96.90;;;;;;4987312;28;20082;-81
2021/01/02 13:10:22;;;;;;;21.67;12.75;;;3.50;96.90;;;;;;4991194;28;20049;-81
2021/01/02 13:12:52;;;;;;;23.38;12.45;;;3.60;97.00;;;;;;5002334;28;20532;-79
2021/01/02 13:15:21;;;;;;;20.38;11.93;;;3.60;96.90;;;;;;4985862;28;20042;-81
2021/01/02 13:35:45;;;;;;;18.35;11.13;;;3.70;96.40;;;;;;5481877;23;20046;-80
2021/01/02 13:38:15;;;;;;;19.23;11.70;;;3.60;96.30;;;;;;4996021;28;20051;-82
2021/01/02 13:40:44;;;;;;;20.27;11.65;;;3.60;96.40;;;;;;4999758;28;20073;-82
2021/01/02 13:43:13;;;;;;;20.10;11.63;;;3.60;96.50;;;;;;4999480;28;20109;-83
2021/01/02 13:45:40;;;;;;;17.77;10.50;;;3.60;96.30;;;;;;4979391;28;20073;-81
2021/01/02 13:48:09;;;;;;;19.33;11.60;;;3.80;95.70;;;;;;4997830;28;20050;-82
2021/01/02 13:50:35;;;;;;;19.38;11.38;;;3.80;95.70;;;;;;4989730;28;20062;-80
2021/01/02 13:53:03;;;;;;;19.13;10.80;;;3.70;95.60;;;;;;4976949;28;20134;-79
2021/01/02 13:55:30;;;;;;;19.17;11.15;;;3.80;95.60;;;;;;4976144;28;20424;-80
2021/01/02 13:57:57;;;;;;;18.73;11.32;;;3.80;95.60;;;;;;4975279;28;20086;-80
2021/01/02 14:00:25;;;;;;;17.27;9.93;;;3.80;95.60;;;;;;4972714;28;20143;-80
2021/01/02 14:02:51;;;;;;;19.95;10.20;;;3.80;95.50;;;;;;4974275;28;20496;-80
2021/01/02 14:05:25;;;;;;;17.60;10.60;;;3.60;95.80;;;;;;4982211;28;20548;-78
2021/01/02 14:07:54;;;;;;;19.23;10.85;;;3.70;95.60;;;;;;4965942;28;20066;-79
2021/01/02 14:10:23;;;;;;;17.50;11.07;;;3.80;95.50;;;;;;4979354;28;20481;-79
2021/01/02 14:12:51;;;;;;;16.50;9.75;;;3.80;95.70;;;;;;4977501;28;20050;-80
2021/01/02 14:15:21;;;;;;;17.30;10.40;;;3.80;95.40;;;;;;4984361;28;20137;-81
2021/01/02 14:17:48;;;;;;;17.67;9.98;;;3.80;95.30;;;;;;4980003;28;20062;-81
2021/01/02 14:20:15;;;;;;;18.48;11.00;;;3.60;95.20;;;;;;4977909;28;20791;-80
2021/01/02 14:22:44;;;;;;;17.23;10.10;;;3.60;95.60;;;;;;4978814;28;20133;-82
2021/01/02 14:25:14;;;;;;;17.08;10.63;;;3.50;95.30;;;;;;4965996;28;20480;-82